Impacts TAF Board
For situational awareness. Not to be used for flight planning purposes.
IDs:

KMIA - Miami Intl, FL, US

Issued at 1135 UTC 21 Sep 2018
Updated at 1158 UTC 21 Sep 2018
Potential Impact None Slight Moderate High
Time1153Z 21/12Z 21/13Z 21/14Z 21/15Z 21/16Z 21/17Z 21/18Z 21/19Z 21/20Z 21/21Z 21/22Z 21/23Z 22/00Z>>
Type OBS PRVL PRVL PRVL PRVL PRVL PRVL PRVL PRVL PRVL PRVL PRVL PRVL PRVL
VIS 10 >6 >6 >6 >6 >6 >6 >6 >6 >6 >6 >6 >6 >6
CIG -- -- -- -- -- -- 50 50 50 50 50 50 50 250
Cover SCT SCT SCT SCT SCT SCT BKN BKN BKN BKN BKN BKN BKN BKN
FltCat VFR VFR VFR VFR VFR VFR VFR VFR VFR VFR VFR VFR VFR VFR
WX -- -- VCSH VCSH VCSH VCSH VCTS VCTS VCTS VCTS VCTS VCTS VCTS --
WDir 10 VRB 80 80 80 80 100 100 100 100 100 100 100 90
WSpd 3 6 6 6 6 6 10 10 10 10 10 10 10 6
WGst -- -- -- -- -- -- -- -- -- -- -- -- -- --
Raw TAF
KMIA 211135Z 2112/2218 VRB06KT P6SM SCT040 SCT250
  FM211300 08006KT P6SM VCSH SCT030 SCT250
  FM211700 10010KT P6SM VCTS SCT025CB BKN050 BKN250
  FM220000 09006KT P6SM FEW030 SCT060 BKN250
  FM220300 VRB04KT P6SM FEW040 SCT250
  FM221300 11010KT P6SM SCT030 BKN250


Raw METAR
KMIA 211153Z 01003KT 10SM FEW025 FEW110 SCT230 27/24 A3002 RMK AO2 SLP167 60055 70055 T02670239 10283 20228 53009 $
KMIA 211053Z 02003KT 10SM FEW025 FEW110 SCT230 26/24 A3001 RMK AO2 SLP163 T02560239 $
KMIA 210953Z 00000KT 10SM FEW025 FEW120 SCT250 24/24 A3000 RMK AO2 RAE06 SLP159 CONS LTGICCA DSNT S CB DSNT S MOV W P0000 T02440239 $
KMIA 210853Z COR 04004KT 10SM -RA SCT034CB BKN110 OVC250 23/22 A3000 RMK AO2 RAB00 TSE11B18E45 SLP158 CB W MOV W P0055 60055 T02330222 56008 $
KMIA 210847Z 00000KT 8SM -RA BKN034CB BKN110 23/22 A3000 RMK AO2 RAB00 TSE11B18E45 CB W MOV W P0054 $
KMIA 210835Z 21003KT 8SM TSRA SCT025CB BKN036CB BKN250 24/21 A3000 RMK AO2 RAB00 TSE11B18 OCNL LTGICCG W-NW TS W-NW MOV W P0050 T02390211 $

METAR Board
Radar Display
Forecast Discussion
For situational awareness. Not to be used for flight planning purposes.